sensor_id;sensor_type;location;lat;lon;timestamp;P1;durP1;ratioP1;P2;durP2;ratioP2
13651;SDS011;6899;51.546;6.912;2023-03-13T00:00:05;21.30;;;5.45;;
13651;SDS011;6899;51.546;6.912;2023-03-13T00:02:34;17.83;;;5.00;;
13651;SDS011;6899;51.546;6.912;2023-03-13T00:05:04;17.55;;;4.75;;
13651;SDS011;6899;51.546;6.912;2023-03-13T00:07:32;13.18;;;5.13;;
13651;SDS011;6899;51.546;6.912;2023-03-13T00:10:00;15.35;;;5.72;;
13651;SDS011;6899;51.546;6.912;2023-03-13T00:12:27;20.75;;;5.10;;
13651;SDS011;6899;51.546;6.912;2023-03-13T00:14:54;16.90;;;5.10;;
13651;SDS011;6899;51.546;6.912;2023-03-13T00:17:22;16.63;;;4.78;;
13651;SDS011;6899;51.546;6.912;2023-03-13T00:19:49;15.82;;;4.90;;
13651;SDS011;6899;51.546;6.912;2023-03-13T00:22:23;19.50;;;4.55;;
13651;SDS011;6899;51.546;6.912;2023-03-13T00:24:52;17.70;;;4.50;;
13651;SDS011;6899;51.546;6.912;2023-03-13T00:27:23;22.23;;;4.72;;
13651;SDS011;6899;51.546;6.912;2023-03-13T00:29:54;22.80;;;5.15;;
13651;SDS011;6899;51.546;6.912;2023-03-13T00:32:22;18.95;;;5.43;;
13651;SDS011;6899;51.546;6.912;2023-03-13T00:34:49;21.63;;;4.40;;
13651;SDS011;6899;51.546;6.912;2023-03-13T00:37:19;22.15;;;5.13;;
13651;SDS011;6899;51.546;6.912;2023-03-13T00:39:50;16.13;;;4.32;;
13651;SDS011;6899;51.546;6.912;2023-03-13T00:42:17;19.65;;;5.30;;
13651;SDS011;6899;51.546;6.912;2023-03-13T00:44:44;18.08;;;5.10;;
13651;SDS011;6899;51.546;6.912;2023-03-13T00:47:14;18.55;;;5.40;;
13651;SDS011;6899;51.546;6.912;2023-03-13T00:49:42;17.42;;;4.82;;
13651;SDS011;6899;51.546;6.912;2023-03-13T00:52:09;18.73;;;5.18;;
13651;SDS011;6899;51.546;6.912;2023-03-13T00:54:36;21.55;;;4.80;;
13651;SDS011;6899;51.546;6.912;2023-03-13T00:57:05;20.48;;;5.68;;
13651;SDS011;6899;51.546;6.912;2023-03-13T00:59:32;22.88;;;5.82;;
13651;SDS011;6899;51.546;6.912;2023-03-13T01:01:59;19.55;;;5.50;;
13651;SDS011;6899;51.546;6.912;2023-03-13T01:04:26;18.58;;;5.10;;
13651;SDS011;6899;51.546;6.912;2023-03-13T01:06:54;18.33;;;4.75;;
13651;SDS011;6899;51.546;6.912;2023-03-13T01:09:21;21.67;;;5.18;;
13651;SDS011;6899;51.546;6.912;2023-03-13T01:11:48;17.17;;;5.50;;
13651;SDS011;6899;51.546;6.912;2023-03-13T01:14:16;22.55;;;4.88;;
13651;SDS011;6899;51.546;6.912;2023-03-13T01:16:45;22.83;;;5.32;;
13651;SDS011;6899;51.546;6.912;2023-03-13T01:19:12;18.88;;;5.05;;
13651;SDS011;6899;51.546;6.912;2023-03-13T01:21:41;20.67;;;5.53;;
13651;SDS011;6899;51.546;6.912;2023-03-13T01:24:11;20.65;;;5.03;;
13651;SDS011;6899;51.546;6.912;2023-03-13T01:26:40;18.00;;;5.15;;
13651;SDS011;6899;51.546;6.912;2023-03-13T01:29:07;25.65;;;5.25;;
13651;SDS011;6899;51.546;6.912;2023-03-13T01:31:34;16.15;;;4.68;;
13651;SDS011;6899;51.546;6.912;2023-03-13T01:34:02;25.55;;;5.80;;
13651;SDS011;6899;51.546;6.912;2023-03-13T01:36:33;24.38;;;6.22;;
13651;SDS011;6899;51.546;6.912;2023-03-13T01:39:01;18.20;;;6.03;;
13651;SDS011;6899;51.546;6.912;2023-03-13T01:41:30;25.05;;;6.00;;
13651;SDS011;6899;51.546;6.912;2023-03-13T01:43:57;22.70;;;5.53;;
13651;SDS011;6899;51.546;6.912;2023-03-13T01:46:25;20.38;;;5.72;;
13651;SDS011;6899;51.546;6.912;2023-03-13T01:48:53;27.67;;;6.38;;
13651;SDS011;6899;51.546;6.912;2023-03-13T01:51:28;21.25;;;5.20;;
13651;SDS011;6899;51.546;6.912;2023-03-13T01:54:02;23.58;;;5.45;;
13651;SDS011;6899;51.546;6.912;2023-03-13T01:56:36;20.08;;;5.43;;
13651;SDS011;6899;51.546;6.912;2023-03-13T01:59:06;23.05;;;6.07;;
13651;SDS011;6899;51.546;6.912;2023-03-13T02:01:35;20.00;;;5.18;;
13651;SDS011;6899;51.546;6.912;2023-03-13T02:04:07;29.33;;;5.95;;
13651;SDS011;6899;51.546;6.912;2023-03-13T02:06:35;22.90;;;6.50;;
13651;SDS011;6899;51.546;6.912;2023-03-13T02:09:08;23.55;;;5.43;;
13651;SDS011;6899;51.546;6.912;2023-03-13T02:11:43;31.50;;;6.32;;
13651;SDS011;6899;51.546;6.912;2023-03-13T02:14:14;20.02;;;5.93;;
13651;SDS011;6899;51.546;6.912;2023-03-13T02:16:42;16.55;;;5.32;;
13651;SDS011;6899;51.546;6.912;2023-03-13T02:19:15;27.15;;;7.20;;
13651;SDS011;6899;51.546;6.912;2023-03-13T02:21:50;29.20;;;5.60;;
13651;SDS011;6899;51.546;6.912;2023-03-13T02:24:21;22.83;;;6.10;;
13651;SDS011;6899;51.546;6.912;2023-03-13T02:26:58;23.17;;;6.65;;
13651;SDS011;6899;51.546;6.912;2023-03-13T02:29:27;21.05;;;6.93;;
13651;SDS011;6899;51.546;6.912;2023-03-13T02:31:55;27.67;;;7.03;;
13651;SDS011;6899;51.546;6.912;2023-03-13T02:34:27;30.33;;;7.22;;
13651;SDS011;6899;51.546;6.912;2023-03-13T02:36:57;22.83;;;7.03;;
13651;SDS011;6899;51.546;6.912;2023-03-13T02:39:29;21.77;;;5.82;;
13651;SDS011;6899;51.546;6.912;2023-03-13T02:41:58;27.17;;;7.00;;
13651;SDS011;6899;51.546;6.912;2023-03-13T02:44:26;22.15;;;6.57;;
13651;SDS011;6899;51.546;6.912;2023-03-13T02:46:54;26.27;;;7.80;;
13651;SDS011;6899;51.546;6.912;2023-03-13T02:49:24;18.75;;;6.13;;
13651;SDS011;6899;51.546;6.912;2023-03-13T02:51:55;26.33;;;6.60;;
13651;SDS011;6899;51.546;6.912;2023-03-13T02:54:27;19.08;;;6.13;;
13651;SDS011;6899;51.546;6.912;2023-03-13T02:57:03;22.85;;;5.95;;
13651;SDS011;6899;51.546;6.912;2023-03-13T02:59:30;18.30;;;6.38;;
13651;SDS011;6899;51.546;6.912;2023-03-13T03:01:58;21.40;;;5.65;;
13651;SDS011;6899;51.546;6.912;2023-03-13T03:04:31;26.17;;;6.10;;
13651;SDS011;6899;51.546;6.912;2023-03-13T03:06:58;26.40;;;6.72;;
13651;SDS011;6899;51.546;6.912;2023-03-13T03:09:27;24.33;;;6.00;;
13651;SDS011;6899;51.546;6.912;2023-03-13T03:11:56;25.77;;;5.43;;
13651;SDS011;6899;51.546;6.912;2023-03-13T03:14:31;20.50;;;6.20;;
13651;SDS011;6899;51.546;6.912;2023-03-13T03:17:02;22.63;;;5.70;;
13651;SDS011;6899;51.546;6.912;2023-03-13T03:19:34;17.77;;;6.07;;
13651;SDS011;6899;51.546;6.912;2023-03-13T03:22:00;18.52;;;5.15;;
13651;SDS011;6899;51.546;6.912;2023-03-13T03:24:27;15.98;;;5.72;;
13651;SDS011;6899;51.546;6.912;2023-03-13T03:26:54;17.15;;;5.68;;
13651;SDS011;6899;51.546;6.912;2023-03-13T03:29:21;17.90;;;5.07;;
13651;SDS011;6899;51.546;6.912;2023-03-13T03:31:53;17.55;;;5.43;;
13651;SDS011;6899;51.546;6.912;2023-03-13T03:34:20;16.67;;;5.28;;
13651;SDS011;6899;51.546;6.912;2023-03-13T03:36:50;14.05;;;5.88;;
13651;SDS011;6899;51.546;6.912;2023-03-13T03:39:21;14.52;;;4.22;;
13651;SDS011;6899;51.546;6.912;2023-03-13T03:41:53;15.70;;;4.93;;
13651;SDS011;6899;51.546;6.912;2023-03-13T03:44:20;12.02;;;5.22;;
13651;SDS011;6899;51.546;6.912;2023-03-13T03:46:46;11.70;;;4.32;;
13651;SDS011;6899;51.546;6.912;2023-03-13T03:49:18;14.20;;;5.30;;
13651;SDS011;6899;51.546;6.912;2023-03-13T03:51:48;13.43;;;5.55;;
13651;SDS011;6899;51.546;6.912;2023-03-13T03:54:15;13.25;;;4.38;;
13651;SDS011;6899;51.546;6.912;2023-03-13T03:56:43;12.05;;;4.72;;
13651;SDS011;6899;51.546;6.912;2023-03-13T03:59:16;10.52;;;4.72;;
13651;SDS011;6899;51.546;6.912;2023-03-13T04:01:50;13.63;;;5.32;;
13651;SDS011;6899;51.546;6.912;2023-03-13T04:04:18;13.52;;;4.85;;
13651;SDS011;6899;51.546;6.912;2023-03-13T04:06:45;13.23;;;4.53;;
13651;SDS011;6899;51.546;6.912;2023-03-13T04:09:14;13.32;;;5.30;;
13651;SDS011;6899;51.546;6.912;2023-03-13T04:11:41;12.50;;;5.35;;
13651;SDS011;6899;51.546;6.912;2023-03-13T04:14:11;10.25;;;5.40;;
13651;SDS011;6899;51.546;6.912;2023-03-13T04:16:39;16.80;;;5.50;;
13651;SDS011;6899;51.546;6.912;2023-03-13T04:19:06;12.43;;;5.38;;
13651;SDS011;6899;51.546;6.912;2023-03-13T04:21:35;12.30;;;5.70;;
13651;SDS011;6899;51.546;6.912;2023-03-13T04:24:06;13.23;;;5.43;;
13651;SDS011;6899;51.546;6.912;2023-03-13T04:26:36;12.00;;;6.40;;
13651;SDS011;6899;51.546;6.912;2023-03-13T04:29:03;14.02;;;5.15;;
13651;SDS011;6899;51.546;6.912;2023-03-13T04:31:31;15.25;;;6.82;;
13651;SDS011;6899;51.546;6.912;2023-03-13T04:33:58;12.82;;;6.40;;
13651;SDS011;6899;51.546;6.912;2023-03-13T04:36:25;12.55;;;6.55;;
13651;SDS011;6899;51.546;6.912;2023-03-13T04:38:53;11.05;;;5.43;;
13651;SDS011;6899;51.546;6.912;2023-03-13T04:41:20;10.27;;;5.95;;
13651;SDS011;6899;51.546;6.912;2023-03-13T04:43:47;9.50;;;6.38;;
13651;SDS011;6899;51.546;6.912;2023-03-13T04:46:14;14.80;;;6.70;;
13651;SDS011;6899;51.546;6.912;2023-03-13T04:48:42;10.45;;;5.85;;
13651;SDS011;6899;51.546;6.912;2023-03-13T04:51:09;11.93;;;6.97;;
13651;SDS011;6899;51.546;6.912;2023-03-13T04:53:36;15.90;;;7.22;;
13651;SDS011;6899;51.546;6.912;2023-03-13T04:56:05;13.48;;;7.13;;
13651;SDS011;6899;51.546;6.912;2023-03-13T04:58:34;11.93;;;7.53;;
13651;SDS011;6899;51.546;6.912;2023-03-13T05:01:01;13.52;;;7.40;;
13651;SDS011;6899;51.546;6.912;2023-03-13T05:03:31;11.05;;;7.88;;
13651;SDS011;6899;51.546;6.912;2023-03-13T05:06:03;10.77;;;7.07;;
13651;SDS011;6899;51.546;6.912;2023-03-13T05:08:30;11.77;;;7.30;;
13651;SDS011;6899;51.546;6.912;2023-03-13T05:11:04;11.57;;;7.18;;
13651;SDS011;6899;51.546;6.912;2023-03-13T05:13:31;12.88;;;7.90;;
13651;SDS011;6899;51.546;6.912;2023-03-13T05:16:04;13.52;;;8.25;;
13651;SDS011;6899;51.546;6.912;2023-03-13T05:18:34;11.98;;;7.65;;
13651;SDS011;6899;51.546;6.912;2023-03-13T05:21:04;13.48;;;8.68;;
13651;SDS011;6899;51.546;6.912;2023-03-13T05:23:34;13.70;;;8.02;;
13651;SDS011;6899;51.546;6.912;2023-03-13T05:26:01;9.95;;;7.80;;
13651;SDS011;6899;51.546;6.912;2023-03-13T05:28:31;12.57;;;8.25;;
13651;SDS011;6899;51.546;6.912;2023-03-13T05:31:01;12.13;;;7.90;;
13651;SDS011;6899;51.546;6.912;2023-03-13T05:33:38;12.38;;;7.95;;
13651;SDS011;6899;51.546;6.912;2023-03-13T05:36:06;12.65;;;8.43;;
13651;SDS011;6899;51.546;6.912;2023-03-13T05:38:34;12.90;;;7.55;;
13651;SDS011;6899;51.546;6.912;2023-03-13T05:41:03;11.85;;;7.65;;
13651;SDS011;6899;51.546;6.912;2023-03-13T05:43:35;12.45;;;7.78;;
13651;SDS011;6899;51.546;6.912;2023-03-13T05:46:02;12.43;;;7.20;;
13651;SDS011;6899;51.546;6.912;2023-03-13T05:48:32;9.65;;;7.05;;
13651;SDS011;6899;51.546;6.912;2023-03-13T05:51:02;9.68;;;7.05;;
13651;SDS011;6899;51.546;6.912;2023-03-13T05:53:29;8.82;;;6.80;;
13651;SDS011;6899;51.546;6.912;2023-03-13T05:55:56;9.70;;;7.03;;
13651;SDS011;6899;51.546;6.912;2023-03-13T05:58:25;9.75;;;6.57;;
13651;SDS011;6899;51.546;6.912;2023-03-13T06:00:57;9.77;;;6.57;;
13651;SDS011;6899;51.546;6.912;2023-03-13T06:03:24;9.98;;;6.57;;
13651;SDS011;6899;51.546;6.912;2023-03-13T06:05:56;10.02;;;6.80;;
13651;SDS011;6899;51.546;6.912;2023-03-13T06:08:24;12.68;;;7.45;;
13651;SDS011;6899;51.546;6.912;2023-03-13T06:10:51;11.57;;;7.57;;
13651;SDS011;6899;51.546;6.912;2023-03-13T06:13:21;10.23;;;7.22;;
13651;SDS011;6899;51.546;6.912;2023-03-13T06:15:50;11.27;;;8.32;;
13651;SDS011;6899;51.546;6.912;2023-03-13T06:18:22;14.35;;;8.32;;
13651;SDS011;6899;51.546;6.912;2023-03-13T06:20:54;18.83;;;9.00;;
13651;SDS011;6899;51.546;6.912;2023-03-13T06:23:27;12.85;;;8.52;;
13651;SDS011;6899;51.546;6.912;2023-03-13T06:25:59;12.32;;;8.23;;
13651;SDS011;6899;51.546;6.912;2023-03-13T06:28:28;12.00;;;7.68;;
13651;SDS011;6899;51.546;6.912;2023-03-13T06:30:59;12.68;;;7.57;;
13651;SDS011;6899;51.546;6.912;2023-03-13T06:33:32;13.02;;;7.45;;
13651;SDS011;6899;51.546;6.912;2023-03-13T06:36:02;10.25;;;7.18;;
13651;SDS011;6899;51.546;6.912;2023-03-13T06:38:35;11.63;;;6.60;;
13651;SDS011;6899;51.546;6.912;2023-03-13T06:41:02;8.77;;;6.25;;
13651;SDS011;6899;51.546;6.912;2023-03-13T06:43:31;9.70;;;6.10;;
13651;SDS011;6899;51.546;6.912;2023-03-13T06:46:01;8.82;;;5.00;;
13651;SDS011;6899;51.546;6.912;2023-03-13T06:48:33;8.68;;;5.25;;
13651;SDS011;6899;51.546;6.912;2023-03-13T06:51:00;7.80;;;4.65;;
13651;SDS011;6899;51.546;6.912;2023-03-13T06:53:27;6.57;;;4.80;;
13651;SDS011;6899;51.546;6.912;2023-03-13T06:55:59;5.90;;;4.60;;
13651;SDS011;6899;51.546;6.912;2023-03-13T06:58:27;8.63;;;4.72;;
13651;SDS011;6899;51.546;6.912;2023-03-13T07:00:54;6.18;;;3.97;;
13651;SDS011;6899;51.546;6.912;2023-03-13T07:03:22;7.53;;;4.07;;
13651;SDS011;6899;51.546;6.912;2023-03-13T07:05:55;8.57;;;4.00;;
13651;SDS011;6899;51.546;6.912;2023-03-13T07:08:23;6.60;;;4.20;;
13651;SDS011;6899;51.546;6.912;2023-03-13T07:10:51;6.03;;;4.18;;
13651;SDS011;6899;51.546;6.912;2023-03-13T07:13:19;6.13;;;4.03;;
13651;SDS011;6899;51.546;6.912;2023-03-13T07:15:48;6.47;;;3.40;;
13651;SDS011;6899;51.546;6.912;2023-03-13T07:18:18;5.80;;;3.70;;
13651;SDS011;6899;51.546;6.912;2023-03-13T07:20:50;6.07;;;3.53;;
13651;SDS011;6899;51.546;6.912;2023-03-13T07:23:20;6.43;;;3.72;;
13651;SDS011;6899;51.546;6.912;2023-03-13T07:25:54;5.43;;;3.42;;
13651;SDS011;6899;51.546;6.912;2023-03-13T07:28:22;4.72;;;3.42;;
13651;SDS011;6899;51.546;6.912;2023-03-13T07:30:50;5.45;;;3.42;;
13651;SDS011;6899;51.546;6.912;2023-03-13T07:33:24;4.15;;;3.08;;
13651;SDS011;6899;51.546;6.912;2023-03-13T07:35:51;5.10;;;3.33;;
13651;SDS011;6899;51.546;6.912;2023-03-13T07:38:20;6.00;;;3.58;;
13651;SDS011;6899;51.546;6.912;2023-03-13T07:40:49;5.63;;;3.55;;
13651;SDS011;6899;51.546;6.912;2023-03-13T07:43:18;4.03;;;3.03;;
13651;SDS011;6899;51.546;6.912;2023-03-13T07:45:49;6.45;;;3.53;;
13651;SDS011;6899;51.546;6.912;2023-03-13T07:48:20;6.05;;;3.83;;
13651;SDS011;6899;51.546;6.912;2023-03-13T07:50:48;7.80;;;3.60;;
13651;SDS011;6899;51.546;6.912;2023-03-13T07:53:15;9.65;;;4.20;;
13651;SDS011;6899;51.546;6.912;2023-03-13T07:55:53;4.65;;;3.38;;
13651;SDS011;6899;51.546;6.912;2023-03-13T07:58:24;7.75;;;4.05;;
13651;SDS011;6899;51.546;6.912;2023-03-13T08:00:52;12.00;;;4.05;;
13651;SDS011;6899;51.546;6.912;2023-03-13T08:03:22;8.50;;;4.00;;
13651;SDS011;6899;51.546;6.912;2023-03-13T08:06:04;9.82;;;3.90;;
13651;SDS011;6899;51.546;6.912;2023-03-13T08:08:35;9.52;;;4.13;;
13651;SDS011;6899;51.546;6.912;2023-03-13T08:11:04;9.90;;;4.38;;
13651;SDS011;6899;51.546;6.912;2023-03-13T08:13:35;9.65;;;4.45;;
13651;SDS011;6899;51.546;6.912;2023-03-13T08:16:06;10.85;;;4.30;;
13651;SDS011;6899;51.546;6.912;2023-03-13T08:18:35;10.15;;;3.90;;
13651;SDS011;6899;51.546;6.912;2023-03-13T08:21:03;7.40;;;4.20;;
13651;SDS011;6899;51.546;6.912;2023-03-13T08:23:34;6.80;;;3.72;;
13651;SDS011;6899;51.546;6.912;2023-03-13T08:26:06;8.32;;;3.33;;
13651;SDS011;6899;51.546;6.912;2023-03-13T08:28:37;7.78;;;3.92;;
13651;SDS011;6899;51.546;6.912;2023-03-13T08:31:06;6.05;;;3.28;;
13651;SDS011;6899;51.546;6.912;2023-03-13T08:33:37;4.18;;;3.28;;
13651;SDS011;6899;51.546;6.912;2023-03-13T08:36:09;4.78;;;3.13;;
13651;SDS011;6899;51.546;6.912;2023-03-13T08:38:39;5.65;;;3.53;;
13651;SDS011;6899;51.546;6.912;2023-03-13T08:41:09;9.95;;;3.70;;
13651;SDS011;6899;51.546;6.912;2023-03-13T08:43:36;6.80;;;3.15;;
13651;SDS011;6899;51.546;6.912;2023-03-13T08:46:06;7.25;;;3.88;;
13651;SDS011;6899;51.546;6.912;2023-03-13T08:48:37;8.65;;;3.60;;
13651;SDS011;6899;51.546;6.912;2023-03-13T08:51:10;9.10;;;3.55;;
13651;SDS011;6899;51.546;6.912;2023-03-13T08:53:43;8.00;;;3.00;;
13651;SDS011;6899;51.546;6.912;2023-03-13T08:56:13;5.88;;;3.40;;
13651;SDS011;6899;51.546;6.912;2023-03-13T08:58:42;5.20;;;3.15;;
13651;SDS011;6899;51.546;6.912;2023-03-13T09:01:10;8.00;;;3.25;;
13651;SDS011;6899;51.546;6.912;2023-03-13T09:03:38;6.95;;;3.28;;
13651;SDS011;6899;51.546;6.912;2023-03-13T09:06:06;7.30;;;2.88;;
13651;SDS011;6899;51.546;6.912;2023-03-13T09:08:35;5.68;;;2.95;;
13651;SDS011;6899;51.546;6.912;2023-03-13T09:11:03;9.93;;;3.40;;
13651;SDS011;6899;51.546;6.912;2023-03-13T09:13:33;7.20;;;2.88;;
13651;SDS011;6899;51.546;6.912;2023-03-13T09:16:03;6.97;;;3.10;;
13651;SDS011;6899;51.546;6.912;2023-03-13T09:18:35;5.53;;;3.20;;
13651;SDS011;6899;51.546;6.912;2023-03-13T09:21:04;5.25;;;3.03;;
13651;SDS011;6899;51.546;6.912;2023-03-13T09:23:34;5.50;;;2.63;;
13651;SDS011;6899;51.546;6.912;2023-03-13T09:26:02;6.13;;;3.53;;
13651;SDS011;6899;51.546;6.912;2023-03-13T09:28:29;6.68;;;2.95;;
13651;SDS011;6899;51.546;6.912;2023-03-13T09:31:06;7.72;;;2.78;;
13651;SDS011;6899;51.546;6.912;2023-03-13T09:33:33;8.63;;;3.58;;
13651;SDS011;6899;51.546;6.912;2023-03-13T09:36:04;7.32;;;3.10;;
13651;SDS011;6899;51.546;6.912;2023-03-13T09:38:32;9.48;;;3.10;;
13651;SDS011;6899;51.546;6.912;2023-03-13T09:41:01;8.95;;;3.20;;
13651;SDS011;6899;51.546;6.912;2023-03-13T09:43:34;6.72;;;2.60;;
13651;SDS011;6899;51.546;6.912;2023-03-13T09:46:10;6.30;;;3.03;;
13651;SDS011;6899;51.546;6.912;2023-03-13T09:48:42;6.05;;;2.95;;
13651;SDS011;6899;51.546;6.912;2023-03-13T09:51:17;7.55;;;3.25;;
13651;SDS011;6899;51.546;6.912;2023-03-13T09:54:13;6.95;;;3.08;;
13651;SDS011;6899;51.546;6.912;2023-03-13T09:57:27;9.35;;;3.03;;
13651;SDS011;6899;51.546;6.912;2023-03-13T09:59:59;9.85;;;3.60;;
13651;SDS011;6899;51.546;6.912;2023-03-13T10:02:37;6.40;;;3.00;;
13651;SDS011;6899;51.546;6.912;2023-03-13T10:05:19;5.25;;;2.95;;
13651;SDS011;6899;51.546;6.912;2023-03-13T10:07:47;6.47;;;3.38;;
13651;SDS011;6899;51.546;6.912;2023-03-13T10:10:15;8.77;;;3.42;;
13651;SDS011;6899;51.546;6.912;2023-03-13T10:12:45;9.57;;;3.15;;
13651;SDS011;6899;51.546;6.912;2023-03-13T10:15:22;7.22;;;3.15;;
13651;SDS011;6899;51.546;6.912;2023-03-13T10:18:10;6.97;;;3.00;;
13651;SDS011;6899;51.546;6.912;2023-03-13T10:20:41;6.25;;;2.90;;
13651;SDS011;6899;51.546;6.912;2023-03-13T10:23:12;6.57;;;3.22;;
13651;SDS011;6899;51.546;6.912;2023-03-13T10:25:43;5.65;;;3.20;;
13651;SDS011;6899;51.546;6.912;2023-03-13T10:28:10;7.22;;;3.40;;
13651;SDS011;6899;51.546;6.912;2023-03-13T10:30:40;5.82;;;3.65;;
13651;SDS011;6899;51.546;6.912;2023-03-13T10:33:21;6.05;;;3.30;;
13651;SDS011;6899;51.546;6.912;2023-03-13T10:36:00;4.30;;;2.90;;
13651;SDS011;6899;51.546;6.912;2023-03-13T10:38:32;4.60;;;3.03;;
13651;SDS011;6899;51.546;6.912;2023-03-13T10:41:00;4.97;;;2.95;;
13651;SDS011;6899;51.546;6.912;2023-03-13T10:43:30;4.88;;;2.85;;
13651;SDS011;6899;51.546;6.912;2023-03-13T10:45:57;6.63;;;3.38;;
13651;SDS011;6899;51.546;6.912;2023-03-13T10:48:28;5.57;;;3.38;;
13651;SDS011;6899;51.546;6.912;2023-03-13T10:51:02;6.03;;;2.25;;
13651;SDS011;6899;51.546;6.912;2023-03-13T10:53:31;6.32;;;2.58;;
13651;SDS011;6899;51.546;6.912;2023-03-13T10:56:04;4.88;;;2.13;;
13651;SDS011;6899;51.546;6.912;2023-03-13T10:58:39;4.35;;;2.30;;
13651;SDS011;6899;51.546;6.912;2023-03-13T11:01:15;4.78;;;2.55;;
13651;SDS011;6899;51.546;6.912;2023-03-13T11:03:54;3.72;;;2.45;;
13651;SDS011;6899;51.546;6.912;2023-03-13T11:06:25;4.72;;;2.30;;
13651;SDS011;6899;51.546;6.912;2023-03-13T11:09:01;4.55;;;2.40;;
13651;SDS011;6899;51.546;6.912;2023-03-13T11:11:30;4.53;;;2.30;;
13651;SDS011;6899;51.546;6.912;2023-03-13T11:14:12;3.97;;;2.20;;
13651;SDS011;6899;51.546;6.912;2023-03-13T11:16:44;3.78;;;2.28;;
13651;SDS011;6899;51.546;6.912;2023-03-13T11:19:25;4.80;;;2.20;;
13651;SDS011;6899;51.546;6.912;2023-03-13T11:22:13;4.63;;;2.17;;
13651;SDS011;6899;51.546;6.912;2023-03-13T11:24:52;2.85;;;2.28;;
13651;SDS011;6899;51.546;6.912;2023-03-13T11:27:29;2.85;;;2.00;;
13651;SDS011;6899;51.546;6.912;2023-03-13T11:30:07;4.00;;;1.98;;
13651;SDS011;6899;51.546;6.912;2023-03-13T11:32:47;4.72;;;1.92;;
13651;SDS011;6899;51.546;6.912;2023-03-13T11:35:29;2.90;;;2.30;;
13651;SDS011;6899;51.546;6.912;2023-03-13T11:38:04;2.10;;;1.80;;
13651;SDS011;6899;51.546;6.912;2023-03-13T11:40:35;5.47;;;1.77;;
13651;SDS011;6899;51.546;6.912;2023-03-13T11:43:17;2.13;;;1.60;;
13651;SDS011;6899;51.546;6.912;2023-03-13T11:45:56;3.45;;;2.08;;
13651;SDS011;6899;51.546;6.912;2023-03-13T11:48:44;3.42;;;1.73;;
13651;SDS011;6899;51.546;6.912;2023-03-13T11:51:25;2.47;;;1.80;;
13651;SDS011;6899;51.546;6.912;2023-03-13T11:54:06;2.58;;;1.58;;
13651;SDS011;6899;51.546;6.912;2023-03-13T11:56:50;2.42;;;1.63;;
13651;SDS011;6899;51.546;6.912;2023-03-13T11:59:26;3.75;;;2.28;;
13651;SDS011;6899;51.546;6.912;2023-03-13T12:01:59;3.83;;;2.53;;
13651;SDS011;6899;51.546;6.912;2023-03-13T12:04:32;3.42;;;1.70;;
13651;SDS011;6899;51.546;6.912;2023-03-13T12:07:13;1.60;;;1.42;;
13651;SDS011;6899;51.546;6.912;2023-03-13T12:09:46;2.33;;;1.33;;
13651;SDS011;6899;51.546;6.912;2023-03-13T12:12:20;2.13;;;1.50;;
13651;SDS011;6899;51.546;6.912;2023-03-13T12:14:56;2.85;;;1.70;;
13651;SDS011;6899;51.546;6.912;2023-03-13T12:17:28;1.35;;;1.25;;
13651;SDS011;6899;51.546;6.912;2023-03-13T12:20:00;6.32;;;4.28;;
13651;SDS011;6899;51.546;6.912;2023-03-13T12:22:34;2.00;;;1.75;;
13651;SDS011;6899;51.546;6.912;2023-03-13T12:25:09;1.65;;;1.20;;
13651;SDS011;6899;51.546;6.912;2023-03-13T12:27:49;1.70;;;1.15;;
13651;SDS011;6899;51.546;6.912;2023-03-13T12:30:24;1.42;;;1.25;;
13651;SDS011;6899;51.546;6.912;2023-03-13T12:33:03;2.60;;;1.15;;
13651;SDS011;6899;51.546;6.912;2023-03-13T12:35:42;3.45;;;1.45;;
13651;SDS011;6899;51.546;6.912;2023-03-13T12:38:16;2.70;;;1.33;;
13651;SDS011;6899;51.546;6.912;2023-03-13T12:40:48;2.60;;;0.93;;
13651;SDS011;6899;51.546;6.912;2023-03-13T12:43:22;3.03;;;1.17;;
13651;SDS011;6899;51.546;6.912;2023-03-13T12:46:02;1.88;;;1.02;;
13651;SDS011;6899;51.546;6.912;2023-03-13T12:48:43;2.47;;;1.42;;
13651;SDS011;6899;51.546;6.912;2023-03-13T12:51:25;1.80;;;1.30;;
13651;SDS011;6899;51.546;6.912;2023-03-13T12:54:30;1.92;;;0.88;;
13651;SDS011;6899;51.546;6.912;2023-03-13T12:57:14;1.88;;;1.10;;
13651;SDS011;6899;51.546;6.912;2023-03-13T12:59:57;1.30;;;1.13;;
13651;SDS011;6899;51.546;6.912;2023-03-13T13:02:29;2.30;;;1.20;;
13651;SDS011;6899;51.546;6.912;2023-03-13T13:04:57;2.65;;;1.40;;
13651;SDS011;6899;51.546;6.912;2023-03-13T13:07:26;1.63;;;1.23;;
13651;SDS011;6899;51.546;6.912;2023-03-13T13:10:00;2.42;;;1.20;;
13651;SDS011;6899;51.546;6.912;2023-03-13T13:12:41;2.00;;;1.20;;
13651;SDS011;6899;51.546;6.912;2023-03-13T13:15:13;1.73;;;1.20;;
13651;SDS011;6899;51.546;6.912;2023-03-13T13:17:48;3.83;;;1.40;;
13651;SDS011;6899;51.546;6.912;2023-03-13T13:20:38;1.63;;;1.20;;
13651;SDS011;6899;51.546;6.912;2023-03-13T13:32:18;1.02;;;1.02;;
13651;SDS011;6899;51.546;6.912;2023-03-13T13:35:02;2.10;;;1.00;;
13651;SDS011;6899;51.546;6.912;2023-03-13T13:37:33;1.75;;;1.00;;
13651;SDS011;6899;51.546;6.912;2023-03-13T13:42:53;1.23;;;1.08;;
13651;SDS011;6899;51.546;6.912;2023-03-13T13:45:27;2.60;;;1.10;;
13651;SDS011;6899;51.546;6.912;2023-03-13T13:53:58;1.35;;;1.15;;
13651;SDS011;6899;51.546;6.912;2023-03-13T13:56:27;3.78;;;1.33;;
13651;SDS011;6899;51.546;6.912;2023-03-13T13:58:58;1.80;;;1.25;;
13651;SDS011;6899;51.546;6.912;2023-03-13T14:01:28;4.97;;;1.23;;
13651;SDS011;6899;51.546;6.912;2023-03-13T14:04:01;3.65;;;1.52;;
13651;SDS011;6899;51.546;6.912;2023-03-13T14:06:35;1.65;;;1.30;;
13651;SDS011;6899;51.546;6.912;2023-03-13T14:09:10;3.50;;;2.45;;
13651;SDS011;6899;51.546;6.912;2023-03-13T14:11:45;3.20;;;1.20;;
13651;SDS011;6899;51.546;6.912;2023-03-13T14:14:13;1.90;;;1.20;;
13651;SDS011;6899;51.546;6.912;2023-03-13T14:16:47;4.22;;;1.25;;
13651;SDS011;6899;51.546;6.912;2023-03-13T14:19:24;3.75;;;1.52;;
13651;SDS011;6899;51.546;6.912;2023-03-13T14:22:01;3.70;;;1.33;;
13651;SDS011;6899;51.546;6.912;2023-03-13T14:24:29;3.85;;;1.30;;
13651;SDS011;6899;51.546;6.912;2023-03-13T14:26:56;2.85;;;1.50;;
13651;SDS011;6899;51.546;6.912;2023-03-13T14:29:23;1.70;;;1.58;;
13651;SDS011;6899;51.546;6.912;2023-03-13T14:31:51;1.55;;;1.30;;
13651;SDS011;6899;51.546;6.912;2023-03-13T14:34:19;1.85;;;1.17;;
13651;SDS011;6899;51.546;6.912;2023-03-13T14:36:48;1.42;;;1.30;;
13651;SDS011;6899;51.546;6.912;2023-03-13T14:39:16;2.30;;;1.40;;
13651;SDS011;6899;51.546;6.912;2023-03-13T14:42:01;4.07;;;1.40;;
13651;SDS011;6899;51.546;6.912;2023-03-13T14:44:30;2.10;;;1.30;;
13651;SDS011;6899;51.546;6.912;2023-03-13T14:46:59;2.83;;;1.50;;
13651;SDS011;6899;51.546;6.912;2023-03-13T14:49:30;2.13;;;1.30;;
13651;SDS011;6899;51.546;6.912;2023-03-13T14:51:59;2.15;;;1.20;;
13651;SDS011;6899;51.546;6.912;2023-03-13T14:54:30;2.75;;;1.30;;
13651;SDS011;6899;51.546;6.912;2023-03-13T14:57:18;3.50;;;1.40;;
13651;SDS011;6899;51.546;6.912;2023-03-13T14:59:47;2.85;;;1.30;;
13651;SDS011;6899;51.546;6.912;2023-03-13T15:02:17;4.05;;;1.50;;
13651;SDS011;6899;51.546;6.912;2023-03-13T15:04:53;7.78;;;1.83;;
13651;SDS011;6899;51.546;6.912;2023-03-13T15:07:24;2.88;;;1.30;;
13651;SDS011;6899;51.546;6.912;2023-03-13T15:09:53;1.40;;;1.30;;
13651;SDS011;6899;51.546;6.912;2023-03-13T15:12:20;2.65;;;1.50;;
13651;SDS011;6899;51.546;6.912;2023-03-13T15:14:57;1.77;;;1.40;;
13651;SDS011;6899;51.546;6.912;2023-03-13T15:17:25;2.88;;;1.60;;
13651;SDS011;6899;51.546;6.912;2023-03-13T15:19:54;1.55;;;1.33;;
13651;SDS011;6899;51.546;6.912;2023-03-13T15:22:27;2.45;;;1.35;;
13651;SDS011;6899;51.546;6.912;2023-03-13T15:24:57;1.98;;;1.30;;
13651;SDS011;6899;51.546;6.912;2023-03-13T15:27:25;1.55;;;1.45;;
13651;SDS011;6899;51.546;6.912;2023-03-13T15:29:55;4.10;;;1.30;;
13651;SDS011;6899;51.546;6.912;2023-03-13T15:32:23;2.63;;;1.50;;
13651;SDS011;6899;51.546;6.912;2023-03-13T15:34:52;4.55;;;1.85;;
13651;SDS011;6899;51.546;6.912;2023-03-13T15:37:22;1.75;;;1.40;;